CheckWX is a tool to help pilots better visualize weather data.  It is not intended as a substitute for an official pre-flight weather briefing.

16:09:42 UTC

KJVL METAR
Southern Wisconsin Regional Airport
Janesville, Wisconsin, USA
Current

25 mins ago

KJVL 291545Z 24016G27KT 10SM -DZ OVC014 05/05 A2946
Observed
Mar-29 @ 15:45 UTC
Wind
  • 240° at 16 KTS
  • Gusting to 27 KTS
Visibility
10 SM
Flight Rules
MVFR
Conditions
Light Drizzle
Cloud Levels
  • Overcast at 1,400' AGL
Temperature
C / 41°F
Dewpoint
C / 41°F
Humidity
100%
Altimeter
29.46" Hg
Pressure
997.62 hPa
Previous

1 hour ago

KJVL 291445Z 24014G27KT 5SM BR OVC013 05/05 A2943
Observed
Mar-29 @ 14:45 UTC
Wind
  • 240° at 14 KTS
  • Gusting to 27 KTS
Visibility
5 SM
Flight Rules
MVFR
Conditions
Mist
Cloud Levels
  • Overcast at 1,300' AGL
Temperature
C / 41°F
Dewpoint
C / 41°F
Humidity
100%
Altimeter
29.43" Hg
Pressure
996.62 hPa
Previous

2 hours ago

KJVL 291345Z 23020G29KT 5SM BR OVC013 06/05 A2941
Observed
Mar-29 @ 13:45 UTC
Wind
  • 230° at 20 KTS
  • Gusting to 29 KTS
Visibility
5 SM
Flight Rules
MVFR
Conditions
Mist
Cloud Levels
  • Overcast at 1,300' AGL
Temperature
C / 43°F
Dewpoint
C / 41°F
Humidity
93%
Altimeter
29.41" Hg
Pressure
995.92 hPa